createdAt,value
2023-12-30T00:00:18.790Z,54.58
2023-12-30T00:01:14.494Z,55.37
2023-12-30T00:02:13.482Z,55.62
2023-12-30T00:03:13.708Z,55.64
2023-12-30T00:04:13.552Z,53.94
2023-12-30T00:05:13.480Z,56.15
2023-12-30T00:06:13.455Z,55.05
2023-12-30T00:07:13.507Z,56.31
2023-12-30T00:08:13.443Z,59.04
2023-12-30T00:09:13.410Z,57.53
2023-12-30T00:10:14.501Z,54.33
2023-12-30T00:11:13.389Z,56.20
2023-12-30T00:12:13.388Z,56.64
2023-12-30T00:13:13.402Z,54.04
2023-12-30T00:14:13.394Z,55.96
2023-12-30T00:15:13.372Z,57.03
2023-12-30T00:16:13.384Z,52.91
2023-12-30T00:17:13.349Z,56.47
2023-12-30T00:18:13.430Z,54.68
2023-12-30T00:19:13.407Z,51.94
2023-12-30T00:20:13.362Z,51.81
2023-12-30T00:21:13.377Z,56.96
2023-12-30T00:22:13.347Z,58.49
2023-12-30T00:23:13.313Z,50.67
2023-12-30T00:24:13.333Z,54.49
2023-12-30T00:25:13.337Z,52.69
2023-12-30T00:26:13.296Z,53.88
2023-12-30T00:27:13.284Z,53.25
2023-12-30T00:28:13.310Z,53.13
2023-12-30T00:29:13.427Z,53.12
2023-12-30T00:30:13.356Z,53.64
2023-12-30T00:31:13.303Z,50.99
2023-12-30T00:32:13.276Z,55.44
2023-12-30T00:33:13.319Z,53.45
2023-12-30T00:34:13.483Z,51.44
2023-12-30T00:35:13.258Z,50.80
2023-12-30T00:36:13.236Z,53.37
2023-12-30T00:37:13.228Z,55.68
2023-12-30T00:38:14.267Z,58.50
2023-12-30T00:39:13.202Z,55.01
2023-12-30T00:40:13.255Z,53.12
2023-12-30T00:41:13.209Z,54.70
2023-12-30T00:42:13.177Z,49.37
2023-12-30T00:43:13.195Z,52.09
2023-12-30T00:44:13.155Z,51.50
2023-12-30T00:45:13.260Z,52.91
2023-12-30T00:46:13.189Z,49.96
2023-12-30T00:47:13.157Z,49.88
2023-12-30T00:48:13.234Z,51.57
2023-12-30T00:49:13.221Z,53.90
2023-12-30T00:50:13.988Z,52.78
2023-12-30T00:51:13.148Z,54.24
2023-12-30T00:52:13.205Z,54.43
2023-12-30T00:53:13.091Z,51.24
2023-12-30T00:54:13.096Z,49.81
2023-12-30T00:55:13.121Z,51.63
2023-12-30T00:56:13.075Z,52.94
2023-12-30T00:57:13.089Z,52.23
2023-12-30T00:58:13.106Z,54.42
2023-12-30T00:59:13.064Z,55.56
2023-12-30T01:00:13.063Z,50.26
2023-12-30T01:01:13.135Z,52.32
2023-12-30T01:02:13.058Z,51.17
2023-12-30T01:03:13.051Z,55.16
2023-12-30T01:04:13.043Z,52.74
2023-12-30T01:05:13.076Z,56.59
2023-12-30T01:06:13.023Z,50.50
2023-12-30T01:07:13.065Z,50.51
2023-12-30T01:08:13.060Z,52.72
2023-12-30T01:09:13.007Z,50.20
2023-12-30T01:10:13.007Z,50.42
2023-12-30T01:11:12.983Z,51.70
2023-12-30T01:12:13.977Z,50.07
2023-12-30T01:13:12.990Z,51.94
2023-12-30T01:14:12.955Z,53.57
2023-12-30T01:15:13.010Z,54.01
2023-12-30T01:16:12.954Z,53.58
2023-12-30T01:17:12.956Z,54.17
2023-12-30T01:18:12.980Z,52.28
2023-12-30T01:19:13.123Z,52.15
2023-12-30T01:20:12.930Z,53.14
2023-12-30T01:21:12.938Z,49.05
2023-12-30T01:22:12.928Z,52.17
2023-12-30T01:23:12.896Z,48.89
2023-12-30T01:24:12.902Z,47.69
2023-12-30T01:25:12.887Z,54.54
2023-12-30T01:26:12.905Z,51.63
2023-12-30T01:27:12.870Z,52.33
2023-12-30T01:28:13.001Z,50.62
2023-12-30T01:29:13.481Z,49.26
2023-12-30T01:30:12.886Z,51.58
2023-12-30T01:31:12.910Z,50.16
2023-12-30T01:32:12.848Z,47.64
2023-12-30T01:33:12.882Z,51.86
2023-12-30T01:34:12.972Z,55.31
2023-12-30T01:35:12.808Z,50.74
2023-12-30T01:36:12.815Z,50.10
2023-12-30T01:37:12.853Z,52.07
2023-12-30T01:38:12.825Z,53.32
2023-12-30T01:39:12.874Z,50.20
2023-12-30T01:40:12.804Z,50.17
2023-12-30T01:41:12.763Z,53.21
2023-12-30T01:42:12.750Z,49.97
2023-12-30T01:43:12.853Z,56.19
2023-12-30T01:44:12.741Z,53.89
2023-12-30T01:45:12.742Z,49.18
2023-12-30T01:46:12.779Z,51.24
2023-12-30T01:47:12.741Z,54.12
2023-12-30T01:48:12.756Z,50.20
2023-12-30T01:49:12.704Z,51.36
2023-12-30T01:50:12.712Z,51.53
2023-12-30T01:51:24.265Z,48.17
2023-12-30T01:52:13.749Z,51.84
2023-12-30T01:53:12.730Z,51.66
2023-12-30T01:54:12.696Z,51.93
2023-12-30T01:55:12.692Z,52.25
2023-12-30T01:56:12.660Z,53.09
2023-12-30T01:57:12.656Z,49.82
2023-12-30T01:58:12.699Z,55.07
2023-12-30T01:59:12.677Z,51.63
2023-12-30T02:00:12.632Z,50.53
2023-12-30T02:01:12.697Z,52.82
2023-12-30T02:02:12.690Z,51.43
2023-12-30T02:03:12.639Z,54.51
2023-12-30T02:04:12.683Z,49.38
2023-12-30T02:05:14.247Z,49.39
2023-12-30T02:06:12.607Z,50.99
2023-12-30T02:07:12.592Z,50.25
2023-12-30T02:08:12.581Z,49.75
2023-12-30T02:09:12.585Z,47.43
2023-12-30T02:10:12.606Z,53.00
2023-12-30T02:11:12.576Z,54.16
2023-12-30T02:12:12.586Z,54.14
2023-12-30T02:13:12.599Z,49.29
2023-12-30T02:14:12.546Z,52.61
2023-12-30T02:15:12.537Z,53.37
2023-12-30T02:16:12.606Z,50.60
2023-12-30T02:17:12.645Z,49.45
2023-12-30T02:18:12.597Z,52.75
2023-12-30T02:19:12.524Z,48.05
2023-12-30T02:20:12.510Z,53.15
2023-12-30T02:21:12.509Z,53.85
2023-12-30T02:22:12.505Z,50.81
2023-12-30T02:23:12.479Z,49.54
2023-12-30T02:24:12.479Z,49.13
2023-12-30T02:25:12.585Z,50.84
2023-12-30T02:26:12.459Z,51.73
2023-12-30T02:27:12.458Z,48.55
2023-12-30T02:28:12.471Z,48.85
2023-12-30T02:29:12.441Z,49.18
2023-12-30T02:30:12.492Z,53.71
2023-12-30T02:31:12.546Z,48.31
2023-12-30T02:32:12.415Z,48.64
2023-12-30T02:33:12.519Z,53.03
2023-12-30T02:34:12.445Z,52.43
2023-12-30T02:35:12.395Z,53.66
2023-12-30T02:36:12.449Z,52.22
2023-12-30T02:37:12.433Z,51.31
2023-12-30T02:38:12.397Z,52.31
2023-12-30T02:39:12.377Z,52.42
2023-12-30T02:40:12.423Z,51.82
2023-12-30T02:41:12.352Z,52.02
2023-12-30T02:42:12.367Z,52.64
2023-12-30T02:43:12.395Z,51.02
2023-12-30T02:44:12.343Z,50.26
2023-12-30T02:45:12.366Z,50.55
2023-12-30T02:46:12.329Z,49.95
2023-12-30T02:47:12.346Z,52.90
2023-12-30T02:48:12.427Z,52.38
2023-12-30T02:49:12.392Z,51.35
2023-12-30T02:50:12.300Z,51.84
2023-12-30T02:51:12.281Z,51.06
2023-12-30T02:52:12.334Z,53.45
2023-12-30T02:53:12.334Z,48.67
2023-12-30T02:54:12.274Z,50.27
2023-12-30T02:55:12.398Z,51.59
2023-12-30T02:56:12.253Z,53.43
2023-12-30T02:57:12.377Z,53.37
2023-12-30T02:58:12.283Z,47.34
2023-12-30T02:59:12.248Z,49.65
2023-12-30T03:00:12.223Z,53.54
2023-12-30T03:01:12.305Z,52.37
2023-12-30T03:02:13.219Z,48.01
2023-12-30T03:03:12.269Z,50.63
2023-12-30T03:04:12.284Z,48.33
2023-12-30T03:05:12.338Z,51.70
2023-12-30T03:06:12.286Z,53.45
2023-12-30T03:07:12.197Z,55.50
2023-12-30T03:08:12.180Z,51.84
2023-12-30T03:09:12.240Z,53.54
2023-12-30T03:10:12.216Z,51.77
2023-12-30T03:11:12.231Z,52.41
2023-12-30T03:12:12.144Z,52.15
2023-12-30T03:13:12.196Z,55.23
2023-12-30T03:14:12.145Z,51.84
2023-12-30T03:15:12.140Z,51.03
2023-12-30T03:16:12.184Z,51.77
2023-12-30T03:17:12.121Z,48.81
2023-12-30T03:18:12.208Z,51.26
2023-12-30T03:19:12.262Z,51.08
2023-12-30T03:20:12.120Z,51.73
2023-12-30T03:21:12.090Z,52.92
2023-12-30T03:22:12.141Z,52.68
2023-12-30T03:23:12.075Z,49.17
2023-12-30T03:24:12.072Z,49.72
2023-12-30T03:25:12.132Z,50.66
2023-12-30T03:26:12.113Z,52.64
2023-12-30T03:27:12.065Z,51.74
2023-12-30T03:28:12.119Z,55.86
2023-12-30T03:29:12.059Z,55.22
2023-12-30T03:30:12.091Z,52.49
2023-12-30T03:31:12.068Z,53.53
2023-12-30T03:32:12.074Z,50.54
2023-12-30T03:33:12.084Z,53.22
2023-12-30T03:34:12.085Z,53.27
2023-12-30T03:35:12.011Z,55.26
2023-12-30T03:36:12.029Z,53.09
2023-12-30T03:37:12.109Z,52.44
2023-12-30T03:38:11.987Z,52.59
2023-12-30T03:39:12.002Z,50.18
2023-12-30T03:40:12.008Z,51.20
2023-12-30T03:41:12.002Z,54.66
2023-12-30T03:42:11.939Z,49.17
2023-12-30T03:43:12.030Z,55.92
2023-12-30T03:44:11.968Z,52.39
2023-12-30T03:45:11.938Z,51.29
2023-12-30T03:46:11.992Z,51.76
2023-12-30T03:47:11.933Z,57.33
2023-12-30T03:48:12.965Z,57.48
2023-12-30T03:49:12.010Z,54.16
2023-12-30T03:50:11.929Z,52.88
2023-12-30T03:51:11.898Z,48.65
2023-12-30T03:52:11.909Z,52.63
2023-12-30T03:53:11.888Z,51.20
2023-12-30T03:54:11.903Z,56.16
2023-12-30T03:55:11.911Z,53.04
2023-12-30T03:56:11.856Z,53.35
2023-12-30T03:57:11.854Z,55.73
2023-12-30T03:58:11.866Z,50.98
2023-12-30T03:59:11.859Z,52.49
2023-12-30T04:00:11.881Z,53.04
2023-12-30T04:01:11.934Z,55.20
2023-12-30T04:02:11.827Z,57.25
2023-12-30T04:03:11.910Z,49.03
2023-12-30T04:04:11.869Z,56.08
2023-12-30T04:05:11.880Z,54.70
2023-12-30T04:06:11.798Z,52.46
2023-12-30T04:07:11.819Z,52.96
2023-12-30T04:08:11.770Z,57.05
2023-12-30T04:09:11.775Z,52.92
2023-12-30T04:10:11.779Z,52.21
2023-12-30T04:11:11.774Z,54.04
2023-12-30T04:12:11.755Z,54.00
2023-12-30T04:13:11.961Z,55.09
2023-12-30T04:14:11.762Z,53.52
2023-12-30T04:15:11.740Z,55.33
2023-12-30T04:16:11.753Z,53.84
2023-12-30T04:17:11.735Z,55.00
2023-12-30T04:18:11.759Z,55.66
2023-12-30T04:19:11.821Z,47.97
2023-12-30T04:20:11.680Z,55.05
2023-12-30T04:21:11.686Z,53.84
2023-12-30T04:22:11.719Z,55.42
2023-12-30T04:23:11.688Z,55.40
2023-12-30T04:24:11.664Z,53.20
2023-12-30T04:25:11.719Z,51.10
2023-12-30T04:26:11.657Z,55.90
2023-12-30T04:27:11.636Z,50.97
2023-12-30T04:28:11.692Z,56.57
2023-12-30T04:29:11.634Z,53.17
2023-12-30T04:30:11.641Z,55.39
2023-12-30T04:31:11.692Z,51.03
2023-12-30T04:32:11.684Z,54.69
2023-12-30T04:33:11.684Z,56.47
2023-12-30T04:34:11.715Z,54.54
2023-12-30T04:35:11.612Z,52.18
2023-12-30T04:36:11.584Z,55.66
2023-12-30T04:37:11.590Z,53.28
2023-12-30T04:38:12.566Z,54.07
2023-12-30T04:39:11.590Z,57.07
2023-12-30T04:40:11.625Z,51.31
2023-12-30T04:41:11.552Z,50.95
2023-12-30T04:42:11.547Z,55.72
2023-12-30T04:43:11.580Z,51.40
2023-12-30T04:44:11.527Z,53.35
2023-12-30T04:45:11.555Z,52.43
2023-12-30T04:46:11.568Z,51.06
2023-12-30T04:47:11.516Z,54.82
2023-12-30T04:48:11.555Z,51.05
2023-12-30T04:49:11.565Z,51.98
2023-12-30T04:50:11.498Z,53.75
2023-12-30T04:51:11.543Z,53.24
2023-12-30T04:52:11.556Z,53.81
2023-12-30T04:53:11.485Z,53.79
2023-12-30T04:54:11.481Z,54.70
2023-12-30T04:55:11.546Z,53.18
2023-12-30T04:56:11.463Z,56.81
2023-12-30T04:57:11.554Z,57.44
2023-12-30T04:58:11.492Z,51.73
2023-12-30T04:59:11.471Z,55.56
2023-12-30T05:00:11.430Z,51.07
2023-12-30T05:01:11.492Z,49.02
2023-12-30T05:02:12.460Z,53.80
2023-12-30T05:03:11.426Z,52.99
2023-12-30T05:04:11.472Z,55.61
2023-12-30T05:05:11.428Z,56.22
2023-12-30T05:06:11.400Z,55.87
2023-12-30T05:07:11.403Z,52.33
2023-12-30T05:08:11.430Z,54.01
2023-12-30T05:09:11.411Z,51.06
2023-12-30T05:10:11.445Z,56.38
2023-12-30T05:11:11.355Z,52.11
2023-12-30T05:12:11.354Z,57.54
2023-12-30T05:13:11.413Z,52.20
2023-12-30T05:14:11.393Z,53.94
2023-12-30T05:15:11.334Z,55.55
2023-12-30T05:16:11.360Z,53.86
2023-12-30T05:17:11.334Z,56.76
2023-12-30T05:18:11.426Z,57.44
2023-12-30T05:19:11.420Z,55.98
2023-12-30T05:20:11.313Z,56.47
2023-12-30T05:21:11.300Z,55.21
2023-12-30T05:22:11.314Z,55.68
2023-12-30T05:23:11.327Z,55.31
2023-12-30T05:24:11.286Z,54.72
2023-12-30T05:25:11.307Z,54.92
2023-12-30T05:26:11.276Z,54.84
2023-12-30T05:27:11.263Z,54.44
2023-12-30T05:28:11.278Z,58.26
2023-12-30T05:29:11.257Z,53.56
2023-12-30T05:30:11.314Z,56.38
2023-12-30T05:31:11.421Z,55.89
2023-12-30T05:32:11.230Z,57.93
2023-12-30T05:33:11.338Z,55.93
2023-12-30T05:34:11.319Z,56.47
2023-12-30T05:35:11.248Z,57.16
2023-12-30T05:36:11.215Z,56.70
2023-12-30T05:37:11.249Z,55.13
2023-12-30T05:38:11.191Z,55.33
2023-12-30T05:39:11.187Z,54.22
2023-12-30T05:40:11.200Z,55.32
2023-12-30T05:41:11.185Z,53.94
2023-12-30T05:42:11.171Z,51.05
2023-12-30T05:43:11.203Z,53.28
2023-12-30T05:44:11.156Z,54.22
2023-12-30T05:45:11.151Z,55.25
2023-12-30T05:46:11.185Z,55.65
2023-12-30T05:47:11.152Z,57.16
2023-12-30T05:48:11.238Z,56.03
2023-12-30T05:49:11.194Z,55.38
2023-12-30T05:50:11.102Z,55.17
2023-12-30T05:51:11.102Z,53.05
2023-12-30T05:52:11.140Z,56.37
2023-12-30T05:53:11.094Z,55.43
2023-12-30T05:54:11.085Z,55.37
2023-12-30T05:55:11.095Z,53.78
2023-12-30T05:56:11.156Z,55.66
2023-12-30T05:57:11.064Z,58.78
2023-12-30T05:58:11.090Z,54.81
2023-12-30T05:59:11.057Z,56.08
2023-12-30T06:00:11.053Z,59.26
2023-12-30T06:01:11.138Z,54.20
2023-12-30T06:02:11.039Z,59.10
2023-12-30T06:03:11.065Z,56.53
2023-12-30T06:04:11.067Z,55.36
2023-12-30T06:05:11.026Z,55.94
2023-12-30T06:06:11.074Z,50.44
2023-12-30T06:07:11.048Z,54.61
2023-12-30T06:08:10.996Z,56.06
2023-12-30T06:09:10.988Z,53.16
2023-12-30T06:10:11.068Z,50.74
2023-12-30T06:11:10.982Z,52.38
2023-12-30T06:12:10.983Z,55.65
2023-12-30T06:13:10.986Z,53.80
2023-12-30T06:14:10.965Z,52.05
2023-12-30T06:15:10.945Z,50.95
2023-12-30T06:16:10.991Z,51.51
2023-12-30T06:17:10.933Z,54.60
2023-12-30T06:18:10.988Z,52.61
2023-12-30T06:19:12.908Z,52.15
2023-12-30T06:20:10.937Z,56.70
2023-12-30T06:21:10.915Z,52.13
2023-12-30T06:22:10.931Z,50.47
2023-12-30T06:23:10.908Z,57.11
2023-12-30T06:24:10.971Z,56.99
2023-12-30T06:25:11.009Z,55.37
2023-12-30T06:26:10.879Z,53.12
2023-12-30T06:27:10.871Z,50.24
2023-12-30T06:28:10.929Z,54.58
2023-12-30T06:29:10.898Z,54.47
2023-12-30T06:30:10.910Z,57.38
2023-12-30T06:31:10.884Z,54.58
2023-12-30T06:32:10.862Z,51.44
2023-12-30T06:33:10.895Z,55.41
2023-12-30T06:34:10.871Z,53.97
2023-12-30T06:35:10.821Z,55.36
2023-12-30T06:36:10.806Z,55.84
2023-12-30T06:37:10.954Z,55.94
2023-12-30T06:38:10.840Z,54.51
2023-12-30T06:39:10.815Z,52.16
2023-12-30T06:40:10.821Z,57.82
2023-12-30T06:41:10.808Z,57.36
2023-12-30T06:42:10.783Z,57.24
2023-12-30T06:43:10.938Z,55.05
2023-12-30T06:44:10.783Z,56.64
2023-12-30T06:45:10.769Z,57.15
2023-12-30T06:46:10.772Z,55.37
2023-12-30T06:47:10.732Z,56.73
2023-12-30T06:48:10.808Z,56.85
2023-12-30T06:49:10.986Z,59.40
2023-12-30T06:50:10.723Z,56.19
2023-12-30T06:51:10.725Z,54.55
2023-12-30T06:52:10.750Z,51.58
2023-12-30T06:53:10.698Z,56.61
2023-12-30T06:54:10.704Z,56.60
2023-12-30T06:55:18.684Z,58.00
2023-12-30T06:56:11.703Z,54.47
2023-12-30T06:57:10.690Z,56.65
2023-12-30T06:58:10.690Z,54.66
2023-12-30T06:59:12.753Z,55.32
2023-12-30T07:00:11.812Z,51.42
2023-12-30T07:01:10.762Z,54.72
2023-12-30T07:02:10.628Z,51.29
2023-12-30T07:03:10.640Z,54.95
2023-12-30T07:04:10.704Z,55.07
2023-12-30T07:05:10.675Z,54.33
2023-12-30T07:06:10.609Z,55.49
2023-12-30T07:07:10.652Z,49.42
2023-12-30T07:08:10.617Z,54.11
2023-12-30T07:09:10.587Z,55.15
2023-12-30T07:10:10.627Z,56.50
2023-12-30T07:11:10.577Z,55.75
2023-12-30T07:12:10.718Z,57.06
2023-12-30T07:13:10.699Z,56.13
2023-12-30T07:14:10.573Z,54.86
2023-12-30T07:15:10.665Z,52.97
2023-12-30T07:16:10.659Z,51.46
2023-12-30T07:17:10.538Z,58.53
2023-12-30T07:18:10.708Z,56.70
2023-12-30T07:19:10.714Z,56.19
2023-12-30T07:20:10.576Z,55.50
2023-12-30T07:21:10.532Z,57.51
2023-12-30T07:22:10.515Z,58.81
2023-12-30T07:23:10.552Z,58.81
2023-12-30T07:24:10.497Z,56.51
2023-12-30T07:25:10.499Z,58.57
2023-12-30T07:26:10.494Z,58.02
2023-12-30T07:27:10.469Z,55.45
2023-12-30T07:28:10.497Z,56.93
2023-12-30T07:29:10.523Z,55.46
2023-12-30T07:30:10.489Z,56.75
2023-12-30T07:31:10.507Z,55.87
2023-12-30T07:32:10.473Z,55.26
2023-12-30T07:33:10.505Z,53.36
2023-12-30T07:34:10.509Z,59.34
2023-12-30T07:35:10.455Z,57.72
2023-12-30T07:36:10.450Z,57.94
2023-12-30T07:37:10.455Z,58.24
2023-12-30T07:38:10.416Z,57.54
2023-12-30T07:39:10.402Z,58.05
2023-12-30T07:40:10.451Z,57.03
2023-12-30T07:41:10.394Z,57.62
2023-12-30T07:42:10.472Z,58.72
2023-12-30T07:43:10.438Z,58.89
2023-12-30T07:44:10.374Z,57.82
2023-12-30T07:45:10.349Z,57.94
2023-12-30T07:46:10.442Z,61.37
2023-12-30T07:47:10.349Z,60.10
2023-12-30T07:48:10.398Z,56.66
2023-12-30T07:49:10.385Z,57.80
2023-12-30T07:50:10.375Z,58.43
2023-12-30T07:51:10.326Z,58.88
2023-12-30T07:52:10.437Z,57.59
2023-12-30T07:53:10.313Z,57.88
2023-12-30T07:54:10.328Z,58.17
2023-12-30T07:55:10.295Z,57.61
2023-12-30T07:56:10.282Z,60.25
2023-12-30T07:57:10.282Z,60.13
2023-12-30T07:58:10.399Z,60.96
2023-12-30T07:59:10.358Z,58.97
2023-12-30T08:00:10.277Z,58.17
2023-12-30T08:01:10.322Z,59.55
2023-12-30T08:02:10.348Z,57.51
2023-12-30T08:03:10.265Z,60.10
2023-12-30T08:04:10.300Z,58.13
2023-12-30T08:05:10.418Z,57.66
2023-12-30T08:06:10.250Z,58.63
2023-12-30T08:07:10.258Z,55.73
2023-12-30T08:08:10.215Z,57.30
2023-12-30T08:09:10.222Z,58.56
2023-12-30T08:10:10.248Z,57.87
2023-12-30T08:11:10.211Z,59.59
2023-12-30T08:12:10.272Z,58.14
2023-12-30T08:13:10.226Z,58.14
2023-12-30T08:14:10.204Z,57.19
2023-12-30T08:15:10.180Z,56.49
2023-12-30T08:16:10.955Z,54.96
2023-12-30T08:17:10.428Z,55.35
2023-12-30T08:18:10.237Z,59.74
2023-12-30T08:19:10.154Z,61.00
2023-12-30T08:20:10.265Z,59.46
2023-12-30T08:21:10.138Z,57.92
2023-12-30T08:22:10.141Z,59.28
2023-12-30T08:23:10.151Z,58.46
2023-12-30T08:24:10.120Z,58.98
2023-12-30T08:25:10.188Z,55.38
2023-12-30T08:26:10.097Z,60.09
2023-12-30T08:27:10.087Z,57.57
2023-12-30T08:28:10.108Z,57.45
2023-12-30T08:29:10.095Z,56.40
2023-12-30T08:30:10.485Z,58.31
2023-12-30T08:31:10.108Z,59.28
2023-12-30T08:32:10.066Z,57.54
2023-12-30T08:33:10.274Z,58.10
2023-12-30T08:34:10.133Z,57.19
2023-12-30T08:35:10.057Z,60.07
2023-12-30T08:36:10.045Z,60.44
2023-12-30T08:37:10.170Z,58.47
2023-12-30T08:38:10.020Z,60.25
2023-12-30T08:39:10.008Z,59.80
2023-12-30T08:40:10.021Z,59.82
2023-12-30T08:41:10.050Z,59.10
2023-12-30T08:42:10.986Z,59.23
2023-12-30T08:43:10.001Z,59.48
2023-12-30T08:44:10.065Z,61.73
2023-12-30T08:45:09.970Z,58.86
2023-12-30T08:46:10.015Z,60.53
2023-12-30T08:47:10.308Z,59.53
2023-12-30T08:48:10.026Z,62.19
2023-12-30T08:49:11.196Z,60.15
2023-12-30T08:50:10.016Z,60.55
2023-12-30T08:51:09.920Z,62.55
2023-12-30T08:52:09.997Z,59.04
2023-12-30T08:53:09.946Z,58.44
2023-12-30T08:54:09.994Z,59.99
2023-12-30T08:55:09.947Z,57.36
2023-12-30T08:56:09.896Z,58.43
2023-12-30T08:57:09.893Z,61.72
2023-12-30T08:58:09.925Z,59.96
2023-12-30T08:59:09.945Z,59.63
2023-12-30T09:00:09.866Z,58.34
2023-12-30T09:01:09.921Z,61.93
2023-12-30T09:02:09.877Z,57.82
2023-12-30T09:03:09.950Z,59.89
2023-12-30T09:04:09.924Z,58.18
2023-12-30T09:05:09.827Z,59.83
2023-12-30T09:06:09.858Z,59.79
2023-12-30T09:07:09.872Z,59.85
2023-12-30T09:08:09.825Z,58.67
2023-12-30T09:09:09.807Z,60.65
2023-12-30T09:10:09.875Z,59.60
2023-12-30T09:11:09.798Z,59.84
2023-12-30T09:12:09.817Z,61.16
2023-12-30T09:13:09.818Z,58.63
2023-12-30T09:14:09.782Z,60.39
2023-12-30T09:15:09.764Z,60.95
2023-12-30T09:16:09.778Z,62.27
2023-12-30T09:17:09.815Z,60.96
2023-12-30T09:18:12.906Z,60.29
2023-12-30T09:19:11.894Z,59.70
2023-12-30T09:20:09.783Z,60.03
2023-12-30T09:21:09.731Z,61.12
2023-12-30T09:22:09.839Z,59.97
2023-12-30T09:23:09.725Z,61.20
2023-12-30T09:24:09.711Z,60.69
2023-12-30T09:25:09.765Z,61.21
2023-12-30T09:26:09.729Z,59.45
2023-12-30T09:27:09.692Z,61.50
2023-12-30T09:28:09.729Z,60.72
2023-12-30T09:29:09.665Z,62.80
2023-12-30T09:30:09.743Z,59.07
2023-12-30T09:31:09.789Z,61.54
2023-12-30T09:32:09.649Z,59.89
2023-12-30T09:33:12.062Z,59.57
2023-12-30T09:34:09.701Z,60.96
2023-12-30T09:35:09.699Z,59.98
2023-12-30T09:36:09.639Z,60.59
2023-12-30T09:37:09.692Z,62.53
2023-12-30T09:38:09.751Z,61.39
2023-12-30T09:39:09.609Z,60.66
2023-12-30T09:40:09.676Z,59.05
2023-12-30T09:41:09.603Z,60.21
2023-12-30T09:42:09.645Z,60.09
2023-12-30T09:43:09.604Z,60.32
2023-12-30T09:44:09.576Z,60.59
2023-12-30T09:45:09.574Z,61.14
2023-12-30T09:46:09.590Z,59.43
2023-12-30T09:47:09.563Z,59.95
2023-12-30T09:48:09.627Z,60.86
2023-12-30T09:49:09.581Z,60.54
2023-12-30T09:50:09.546Z,60.79
2023-12-30T09:51:09.529Z,61.67
2023-12-30T09:52:09.563Z,62.45
2023-12-30T09:53:09.521Z,61.58
2023-12-30T09:54:09.554Z,60.35
2023-12-30T09:55:09.577Z,58.58
2023-12-30T09:56:09.526Z,60.50
2023-12-30T09:57:09.486Z,59.38
2023-12-30T09:58:09.479Z,59.78
2023-12-30T09:59:09.482Z,62.31
2023-12-30T10:00:09.454Z,62.26
2023-12-30T10:01:09.586Z,60.19
2023-12-30T10:02:09.507Z,59.68
2023-12-30T10:03:09.484Z,60.43
2023-12-30T10:04:09.551Z,60.71
2023-12-30T10:05:09.636Z,62.22
2023-12-30T10:06:09.441Z,60.73
2023-12-30T10:07:09.504Z,60.79
2023-12-30T10:08:41.833Z,61.44
2023-12-30T10:09:09.411Z,61.72
2023-12-30T10:10:09.432Z,60.57
2023-12-30T10:11:09.397Z,60.67
2023-12-30T10:12:09.474Z,61.30
2023-12-30T10:13:12.637Z,60.81
2023-12-30T10:14:09.388Z,61.79
2023-12-30T10:15:09.421Z,61.33
2023-12-30T10:16:09.382Z,62.91
2023-12-30T10:17:09.383Z,60.58
2023-12-30T10:18:09.481Z,61.21
2023-12-30T10:19:09.438Z,61.68
2023-12-30T10:20:11.469Z,60.22
2023-12-30T10:21:09.356Z,59.57
2023-12-30T10:22:09.349Z,60.58
2023-12-30T10:23:09.312Z,60.25
2023-12-30T10:24:09.312Z,59.89
2023-12-30T10:25:09.355Z,60.44
2023-12-30T10:26:09.329Z,61.69
2023-12-30T10:27:09.319Z,63.06
2023-12-30T10:28:09.302Z,62.69
2023-12-30T10:29:09.280Z,60.62
2023-12-30T10:30:09.340Z,61.07
2023-12-30T10:31:09.400Z,60.12
2023-12-30T10:32:09.255Z,59.71
2023-12-30T10:33:09.480Z,60.71
2023-12-30T10:34:09.434Z,59.28
2023-12-30T10:35:09.248Z,59.96
2023-12-30T10:36:09.271Z,61.98
2023-12-30T10:37:09.284Z,61.78
2023-12-30T10:38:09.228Z,61.14
2023-12-30T10:39:09.221Z,61.21
2023-12-30T10:40:09.226Z,62.64
2023-12-30T10:41:09.195Z,60.94
2023-12-30T10:42:09.206Z,61.47
2023-12-30T10:43:09.893Z,61.86
2023-12-30T10:44:09.249Z,61.58
2023-12-30T10:45:09.180Z,61.91
2023-12-30T10:46:09.225Z,60.28
2023-12-30T10:47:09.342Z,59.70
2023-12-30T10:48:09.718Z,61.45
2023-12-30T10:49:09.270Z,60.16
2023-12-30T10:50:09.236Z,61.58
2023-12-30T10:51:09.514Z,61.46
2023-12-30T10:52:09.142Z,60.03
2023-12-30T10:53:09.158Z,60.75
2023-12-30T10:54:10.117Z,61.12
2023-12-30T10:55:09.214Z,61.56
2023-12-30T10:56:09.109Z,61.24
2023-12-30T10:57:09.083Z,62.91
2023-12-30T10:58:09.110Z,61.78
2023-12-30T10:59:09.102Z,60.66
2023-12-30T11:00:09.153Z,60.67
2023-12-30T11:01:09.095Z,61.04
2023-12-30T11:02:09.090Z,61.06
2023-12-30T11:03:09.100Z,61.72
2023-12-30T11:04:09.133Z,62.18
2023-12-30T11:05:09.583Z,60.74
2023-12-30T11:06:09.154Z,59.85
2023-12-30T11:07:09.058Z,59.83
2023-12-30T11:08:09.043Z,61.08
2023-12-30T11:09:09.105Z,60.89
2023-12-30T11:10:09.035Z,61.66
2023-12-30T11:11:09.091Z,61.01
2023-12-30T11:12:08.976Z,61.22
2023-12-30T11:13:09.549Z,62.43
2023-12-30T11:14:08.983Z,61.31
2023-12-30T11:15:08.969Z,60.12
2023-12-30T11:16:08.993Z,59.69
2023-12-30T11:17:08.968Z,58.64
2023-12-30T11:18:09.030Z,60.95
2023-12-30T11:19:09.018Z,60.01
2023-12-30T11:20:08.977Z,60.39
2023-12-30T11:21:09.114Z,60.30
2023-12-30T11:22:08.968Z,62.02
2023-12-30T11:23:08.908Z,60.69
2023-12-30T11:24:08.935Z,59.34
2023-12-30T11:25:09.036Z,60.18
2023-12-30T11:26:08.888Z,60.23
2023-12-30T11:27:08.877Z,59.97
2023-12-30T11:28:08.899Z,60.20
2023-12-30T11:29:08.891Z,60.65
2023-12-30T11:30:08.915Z,59.98
2023-12-30T11:31:08.885Z,60.56
2023-12-30T11:32:09.294Z,61.22
2023-12-30T11:33:08.926Z,62.03
2023-12-30T11:34:08.903Z,61.46
2023-12-30T11:35:08.878Z,61.66
2023-12-30T11:36:08.814Z,59.53
2023-12-30T11:37:08.841Z,61.55
2023-12-30T11:38:08.886Z,60.43
2023-12-30T11:39:08.801Z,61.61
2023-12-30T11:40:08.882Z,60.56
2023-12-30T11:41:08.876Z,61.24
2023-12-30T11:42:08.821Z,62.27
2023-12-30T11:43:08.830Z,59.53
2023-12-30T11:44:08.776Z,61.89
2023-12-30T11:45:08.755Z,60.58
2023-12-30T11:46:08.812Z,60.76
2023-12-30T11:47:08.738Z,61.55
2023-12-30T11:48:08.802Z,62.08
2023-12-30T11:49:08.975Z,61.44
2023-12-30T11:50:10.684Z,61.38
2023-12-30T11:51:09.746Z,62.48
2023-12-30T11:52:08.742Z,61.13
2023-12-30T11:53:08.711Z,59.89
2023-12-30T11:54:08.698Z,60.73
2023-12-30T11:55:08.730Z,59.75
2023-12-30T11:56:09.865Z,60.28
2023-12-30T11:57:08.774Z,61.20
2023-12-30T11:58:08.715Z,59.36
2023-12-30T11:59:08.706Z,60.50
2023-12-30T12:00:08.697Z,61.54
2023-12-30T12:01:08.692Z,61.80
2023-12-30T12:02:08.737Z,61.01
2023-12-30T12:03:08.645Z,58.79
2023-12-30T12:04:08.764Z,61.23
2023-12-30T12:05:08.766Z,58.60
2023-12-30T12:06:08.704Z,61.42
2023-12-30T12:07:08.741Z,61.27
2023-12-30T12:08:08.605Z,61.08
2023-12-30T12:09:08.606Z,62.99
2023-12-30T12:10:08.676Z,60.84
2023-12-30T12:11:08.576Z,59.24
2023-12-30T12:12:08.605Z,60.37
2023-12-30T12:13:08.765Z,62.88
2023-12-30T12:14:08.570Z,62.56
2023-12-30T12:15:08.564Z,59.05
2023-12-30T12:16:08.589Z,61.02
2023-12-30T12:17:08.545Z,62.55
2023-12-30T12:18:08.714Z,60.54
2023-12-30T12:19:08.835Z,58.45
2023-12-30T12:20:08.528Z,60.85
2023-12-30T12:21:08.543Z,58.93
2023-12-30T12:22:08.521Z,60.26
2023-12-30T12:23:08.500Z,61.54
2023-12-30T12:24:08.537Z,62.24
2023-12-30T12:25:08.504Z,60.43
2023-12-30T12:26:08.472Z,62.60
2023-12-30T12:27:08.509Z,60.09
2023-12-30T12:28:08.588Z,61.35
2023-12-30T12:29:08.575Z,60.32
2023-12-30T12:30:08.649Z,61.50
2023-12-30T12:31:08.625Z,60.35
2023-12-30T12:32:08.453Z,59.55
2023-12-30T12:33:08.515Z,59.61
2023-12-30T12:34:08.532Z,59.62
2023-12-30T12:35:08.511Z,60.39
2023-12-30T12:36:08.413Z,59.58
2023-12-30T12:37:09.424Z,59.09
2023-12-30T12:38:08.412Z,59.90
2023-12-30T12:39:08.408Z,57.81
2023-12-30T12:40:08.453Z,59.48
2023-12-30T12:41:08.412Z,59.61
2023-12-30T12:42:14.966Z,60.56
2023-12-30T12:43:10.414Z,60.77
2023-12-30T12:44:08.367Z,60.46
2023-12-30T12:45:08.403Z,60.39
2023-12-30T12:46:08.412Z,59.70
2023-12-30T12:47:08.349Z,59.13
2023-12-30T12:48:08.429Z,59.13
2023-12-30T12:49:08.436Z,62.19
2023-12-30T12:50:08.366Z,60.46
2023-12-30T12:51:08.321Z,60.92
2023-12-30T12:52:08.334Z,59.53